Time;durP1;ratioP1;P1;durP2;ratioP2;P2;SDS_P1;SDS_P2;PMS_P1;PMS_P2;Temp;Humidity;BMP_temperature;BMP_pressure;BME280_temperature;BME280_humidity;BME280_pressure;Samples;Min_cycle;Max_cycle;Signal;HPM_P1;HPM_P2
2020/12/06 00:02:07;;;;;;;20.47;18.27;;;8.20;90.30;;;;;;5073241;28;20619;-51
2020/12/06 00:04:34;;;;;;;21.27;17.37;;;8.20;90.40;;;;;;5072928;28;20697;-53
2020/12/06 00:07:00;;;;;;;20.47;16.87;;;8.20;90.40;;;;;;5072835;28;20624;-51
2020/12/06 00:09:28;;;;;;;20.00;16.53;;;8.20;90.40;;;;;;5072973;28;21174;-52
2020/12/06 00:11:58;;;;;;;22.03;17.83;;;8.20;90.50;;;;;;5072977;28;20628;-54
2020/12/06 00:14:25;;;;;;;25.03;18.57;;;8.20;90.60;;;;;;5072525;28;20632;-54
2020/12/06 00:16:52;;;;;;;21.23;16.63;;;8.20;90.70;;;;;;5072702;28;20632;-54
2020/12/06 00:19:19;;;;;;;21.70;17.70;;;8.20;90.80;;;;;;5072760;28;20721;-54
2020/12/06 00:21:46;;;;;;;21.67;16.20;;;8.20;90.80;;;;;;5072446;28;20676;-54
2020/12/06 00:24:13;;;;;;;18.50;16.30;;;8.30;90.80;;;;;;5072410;28;20636;-51
2020/12/06 00:26:40;;;;;;;19.47;17.40;;;8.30;90.80;;;;;;5053826;28;20694;-52
2020/12/06 00:29:07;;;;;;;19.40;15.53;;;8.20;90.70;;;;;;5058659;28;20737;-52
2020/12/06 00:31:34;;;;;;;21.53;15.60;;;8.30;90.80;;;;;;5072476;28;21187;-53
2020/12/06 00:34:01;;;;;;;19.63;15.40;;;8.30;90.80;;;;;;5071657;28;20735;-52
2020/12/06 00:36:28;;;;;;;19.20;14.93;;;8.20;90.70;;;;;;5072507;28;20673;-50
2020/12/06 00:38:54;;;;;;;18.90;15.27;;;8.30;90.80;;;;;;5071983;28;20668;-50
2020/12/06 00:41:23;;;;;;;18.63;16.63;;;8.30;91.00;;;;;;5072213;28;21176;-54
2020/12/06 00:43:50;;;;;;;19.57;15.23;;;8.20;90.70;;;;;;5072512;28;20677;-51
2020/12/06 00:46:20;;;;;;;19.23;16.33;;;8.20;90.80;;;;;;5071970;28;21163;-51
2020/12/06 00:48:47;;;;;;;19.10;15.33;;;8.20;91.20;;;;;;5071772;28;20664;-51
2020/12/06 00:51:14;;;;;;;21.40;16.70;;;8.20;91.30;;;;;;5072296;28;20624;-51
2020/12/06 00:53:42;;;;;;;21.67;18.80;;;8.20;91.10;;;;;;5062340;28;20675;-51
2020/12/06 00:56:16;;;;;;;17.67;14.83;;;8.20;91.10;;;;;;5052725;28;21025;-51
2020/12/06 00:58:43;;;;;;;18.77;16.13;;;8.20;90.90;;;;;;5052407;28;20715;-51
2020/12/06 01:01:10;;;;;;;21.83;17.90;;;8.20;91.00;;;;;;5057457;28;20701;-54
2020/12/06 01:03:38;;;;;;;21.20;16.70;;;8.20;91.00;;;;;;5071961;28;20704;-53
2020/12/06 01:06:06;;;;;;;19.57;16.63;;;8.30;91.10;;;;;;5071962;28;21208;-52
2020/12/06 01:08:33;;;;;;;22.37;15.53;;;8.30;91.40;;;;;;5071858;28;20676;-50
2020/12/06 01:11:00;;;;;;;20.93;17.60;;;8.30;91.30;;;;;;5072133;28;20631;-52
2020/12/06 01:13:26;;;;;;;18.37;16.40;;;8.30;91.00;;;;;;5072279;28;20678;-51
2020/12/06 01:15:53;;;;;;;21.30;16.93;;;8.30;91.00;;;;;;5071723;28;20709;-50
2020/12/06 01:18:21;;;;;;;18.70;16.33;;;8.30;91.00;;;;;;5071096;28;20734;-50
2020/12/06 01:20:49;;;;;;;18.20;16.30;;;8.30;91.30;;;;;;5071990;28;20704;-55
2020/12/06 01:23:16;;;;;;;20.77;15.93;;;8.30;91.00;;;;;;5071382;28;20704;-53
2020/12/06 01:25:43;;;;;;;19.97;17.87;;;8.30;91.10;;;;;;5071531;28;20628;-54
2020/12/06 01:28:10;;;;;;;17.87;16.00;;;8.30;91.20;;;;;;5071556;28;20728;-54
2020/12/06 01:30:36;;;;;;;18.53;15.77;;;8.30;91.10;;;;;;5071487;28;20685;-54
2020/12/06 01:33:03;;;;;;;19.90;17.40;;;8.20;91.00;;;;;;5071876;28;20978;-54
2020/12/06 01:35:31;;;;;;;17.37;15.47;;;8.20;91.10;;;;;;5071393;28;20636;-52
2020/12/06 01:37:59;;;;;;;21.90;18.20;;;8.20;91.10;;;;;;5071179;28;21016;-53
2020/12/06 01:40:27;;;;;;;18.80;16.27;;;8.20;91.20;;;;;;5054420;28;20627;-52
2020/12/06 01:42:53;;;;;;;23.50;17.97;;;8.20;91.20;;;;;;5070926;28;20678;-53
2020/12/06 01:45:20;;;;;;;21.30;19.03;;;8.20;91.30;;;;;;5069957;28;20641;-53
2020/12/06 01:47:47;;;;;;;21.60;19.10;;;8.20;91.30;;;;;;5070876;28;20721;-53
2020/12/06 01:50:14;;;;;;;22.37;19.47;;;8.20;91.30;;;;;;5071153;28;21337;-54
2020/12/06 01:52:42;;;;;;;23.50;18.27;;;8.20;91.30;;;;;;5070889;28;20635;-53
2020/12/06 01:55:11;;;;;;;23.70;19.00;;;8.20;91.30;;;;;;5071047;28;20623;-53
2020/12/06 01:57:38;;;;;;;19.13;16.33;;;8.20;91.40;;;;;;5052882;28;20627;-54
2020/12/06 02:00:05;;;;;;;23.63;19.37;;;8.20;91.50;;;;;;5070850;28;20620;-53
2020/12/06 02:02:32;;;;;;;26.83;19.80;;;8.20;91.40;;;;;;5070664;28;20632;-54
2020/12/06 02:04:59;;;;;;;27.20;19.70;;;8.20;91.50;;;;;;5070751;28;20635;-51
2020/12/06 02:07:26;;;;;;;21.60;16.97;;;8.20;91.40;;;;;;5070441;28;20685;-51
2020/12/06 02:09:54;;;;;;;20.67;17.27;;;8.10;91.40;;;;;;5070216;28;20652;-52
2020/12/06 02:12:21;;;;;;;21.93;18.93;;;8.20;91.40;;;;;;5070420;28;20627;-52
2020/12/06 02:14:47;;;;;;;23.90;19.97;;;8.20;91.40;;;;;;5070192;28;20988;-52
2020/12/06 02:17:14;;;;;;;20.97;18.80;;;8.10;91.30;;;;;;5069963;28;21076;-52
2020/12/06 02:19:41;;;;;;;20.10;17.90;;;8.10;91.30;;;;;;5069928;28;22568;-51
2020/12/06 02:22:09;;;;;;;19.17;17.20;;;8.10;91.50;;;;;;5069876;28;20666;-51
2020/12/06 02:24:36;;;;;;;22.93;19.20;;;8.10;91.60;;;;;;5069803;28;21206;-50
2020/12/06 02:27:03;;;;;;;25.30;20.90;;;8.20;92.10;;;;;;5069937;28;20617;-50
2020/12/06 02:29:29;;;;;;;22.23;19.17;;;8.20;91.80;;;;;;5069612;28;20679;-50
2020/12/06 02:31:56;;;;;;;23.27;18.97;;;8.20;91.80;;;;;;5069465;28;20658;-50
2020/12/06 02:34:23;;;;;;;23.97;20.60;;;8.20;91.80;;;;;;5069802;28;20996;-51
2020/12/06 02:36:50;;;;;;;25.50;19.47;;;8.20;91.70;;;;;;5069896;28;21068;-50
2020/12/06 02:39:17;;;;;;;21.60;18.03;;;8.30;91.80;;;;;;5069421;28;20729;-50
2020/12/06 02:41:45;;;;;;;30.13;19.67;;;8.20;91.70;;;;;;5069478;28;20690;-51
2020/12/06 02:44:13;;;;;;;26.20;20.17;;;8.30;91.80;;;;;;5069307;28;20719;-50
2020/12/06 02:46:40;;;;;;;24.90;19.77;;;8.30;91.80;;;;;;5069380;28;20709;-50
2020/12/06 02:49:07;;;;;;;21.70;18.27;;;8.30;91.80;;;;;;5069486;28;20668;-51
2020/12/06 02:51:33;;;;;;;23.47;19.10;;;8.30;91.60;;;;;;5069588;28;20697;-51
2020/12/06 02:54:00;;;;;;;24.50;19.07;;;8.30;91.50;;;;;;5069556;28;21147;-51
2020/12/06 02:56:28;;;;;;;21.40;17.60;;;8.30;91.50;;;;;;5069837;28;21028;-50
2020/12/06 02:58:55;;;;;;;22.77;18.70;;;8.30;91.70;;;;;;5069084;28;20722;-51
2020/12/06 03:01:21;;;;;;;21.77;19.47;;;8.30;91.30;;;;;;5073233;28;20729;-51
2020/12/06 03:03:48;;;;;;;25.93;20.90;;;8.30;91.10;;;;;;5068995;28;20697;-51
2020/12/06 03:06:15;;;;;;;22.30;19.03;;;8.30;91.10;;;;;;5069255;28;20748;-51
2020/12/06 03:08:42;;;;;;;20.90;18.13;;;8.30;91.10;;;;;;5069058;28;21258;-50
2020/12/06 03:11:08;;;;;;;24.23;20.73;;;8.30;91.30;;;;;;5069286;28;21019;-51
2020/12/06 03:13:36;;;;;;;22.67;18.90;;;8.30;91.40;;;;;;5069314;28;21187;-51
2020/12/06 03:16:03;;;;;;;23.00;19.03;;;8.30;91.40;;;;;;5069499;28;20629;-50
2020/12/06 03:18:30;;;;;;;21.20;18.67;;;8.30;91.30;;;;;;5068337;28;21269;-50
2020/12/06 03:20:56;;;;;;;23.33;18.70;;;8.30;91.30;;;;;;5069307;28;20692;-50
2020/12/06 03:23:23;;;;;;;25.30;19.80;;;8.30;91.40;;;;;;5068847;28;20719;-51
2020/12/06 03:25:50;;;;;;;26.20;20.33;;;8.30;91.50;;;;;;5069296;28;20667;-51
2020/12/06 03:28:17;;;;;;;22.87;19.17;;;8.30;91.60;;;;;;5068847;28;20713;-50
2020/12/06 03:30:44;;;;;;;23.70;18.67;;;8.20;91.50;;;;;;5068989;28;21017;-50
2020/12/06 03:33:11;;;;;;;26.70;21.43;;;8.30;91.60;;;;;;5068515;28;20636;-51
2020/12/06 03:35:38;;;;;;;25.60;22.87;;;8.20;91.50;;;;;;5069012;28;20713;-51
2020/12/06 03:38:05;;;;;;;26.90;19.70;;;8.20;91.70;;;;;;5068473;28;21073;-52
2020/12/06 03:40:31;;;;;;;25.90;21.73;;;8.20;91.80;;;;;;5068770;28;20629;-52
2020/12/06 03:42:58;;;;;;;24.33;19.57;;;8.20;91.80;;;;;;5068206;28;20633;-51
2020/12/06 03:45:25;;;;;;;24.50;20.27;;;8.20;91.80;;;;;;5067946;28;20628;-52
2020/12/06 03:47:55;;;;;;;26.80;21.63;;;8.30;91.90;;;;;;5068485;28;20694;-52
2020/12/06 03:50:21;;;;;;;26.70;19.70;;;8.30;91.70;;;;;;5069077;28;21032;-50
2020/12/06 03:52:48;;;;;;;21.83;19.50;;;8.20;91.60;;;;;;5068646;28;20615;-49
2020/12/06 03:55:15;;;;;;;27.37;19.83;;;8.20;91.70;;;;;;5069074;28;20744;-52
2020/12/06 03:57:42;;;;;;;23.97;19.53;;;8.20;91.60;;;;;;5068926;28;20627;-50
2020/12/06 04:00:09;;;;;;;24.40;20.17;;;8.20;91.60;;;;;;5069169;28;20621;-50
2020/12/06 04:02:36;;;;;;;24.73;20.17;;;8.20;91.70;;;;;;5068575;28;20648;-50
2020/12/06 04:05:04;;;;;;;23.90;18.97;;;8.20;91.70;;;;;;5068401;28;20655;-49
2020/12/06 04:07:30;;;;;;;25.20;20.23;;;8.20;91.60;;;;;;5068026;28;21158;-50
2020/12/06 04:09:57;;;;;;;20.10;17.23;;;8.20;91.60;;;;;;5068574;28;20682;-49
2020/12/06 04:12:24;;;;;;;28.23;20.87;;;8.20;91.60;;;;;;5068886;28;20690;-51
2020/12/06 04:14:51;;;;;;;24.60;20.30;;;8.20;91.70;;;;;;5068356;28;20646;-50
2020/12/06 04:17:17;;;;;;;24.97;19.80;;;8.20;91.70;;;;;;5068535;28;20669;-50
2020/12/06 04:19:44;;;;;;;26.93;21.40;;;8.20;91.70;;;;;;5068608;28;21220;-50
2020/12/06 04:22:12;;;;;;;27.80;21.80;;;8.20;91.70;;;;;;5068344;28;20667;-50
2020/12/06 04:24:39;;;;;;;26.93;20.20;;;8.30;91.70;;;;;;5068313;28;20636;-50
2020/12/06 04:27:05;;;;;;;25.53;20.40;;;8.20;91.70;;;;;;5068805;28;20636;-50
2020/12/06 04:29:32;;;;;;;28.17;21.73;;;8.20;91.70;;;;;;5070086;28;20658;-50
2020/12/06 04:31:59;;;;;;;28.87;20.60;;;8.30;91.70;;;;;;5071844;28;20699;-50
2020/12/06 04:34:26;;;;;;;23.40;20.00;;;8.30;91.70;;;;;;5071953;28;21031;-50
2020/12/06 04:36:52;;;;;;;21.97;17.70;;;8.30;91.80;;;;;;5071502;28;21073;-50
2020/12/06 04:39:20;;;;;;;23.17;19.47;;;8.30;91.80;;;;;;5071634;28;20663;-50
2020/12/06 04:41:47;;;;;;;24.30;19.07;;;8.30;91.80;;;;;;5072139;28;20708;-50
2020/12/06 04:44:14;;;;;;;24.73;20.30;;;8.30;91.80;;;;;;5071878;28;20632;-49
2020/12/06 04:46:40;;;;;;;24.63;19.47;;;8.30;91.80;;;;;;5072381;28;20668;-50
2020/12/06 04:49:24;;;;;;;24.80;21.33;;;8.30;91.90;;;;;;5071660;28;20696;-50
2020/12/06 04:51:55;;;;;;;24.27;18.70;;;8.30;91.80;;;;;;5071832;28;20658;-51
2020/12/06 04:54:31;;;;;;;22.43;19.90;;;8.30;91.70;;;;;;5071606;28;20640;-51
2020/12/06 04:57:02;;;;;;;22.70;18.10;;;8.30;91.60;;;;;;5071554;28;20632;-50
2020/12/06 04:59:29;;;;;;;22.27;18.77;;;8.30;91.60;;;;;;5071547;28;20648;-51
2020/12/06 05:01:56;;;;;;;24.17;18.80;;;8.30;91.90;;;;;;5072700;28;20711;-49
2020/12/06 05:04:24;;;;;;;25.57;19.63;;;8.30;91.60;;;;;;5086717;28;20632;-51
2020/12/06 05:06:50;;;;;;;22.50;20.07;;;8.30;91.60;;;;;;5071588;28;20700;-50
2020/12/06 05:09:17;;;;;;;27.03;20.90;;;8.30;91.70;;;;;;5071650;28;20695;-49
2020/12/06 05:11:45;;;;;;;23.90;19.27;;;8.30;91.90;;;;;;5071278;28;20773;-51
2020/12/06 05:14:11;;;;;;;25.57;20.40;;;8.30;91.70;;;;;;5071363;28;20635;-50
2020/12/06 05:16:39;;;;;;;21.20;18.30;;;8.40;91.70;;;;;;5071269;28;20689;-49
2020/12/06 05:19:07;;;;;;;22.20;19.77;;;8.40;91.70;;;;;;5070805;28;20711;-50
2020/12/06 05:21:34;;;;;;;23.20;18.70;;;8.30;91.60;;;;;;5071444;28;21183;-50
2020/12/06 05:24:01;;;;;;;20.27;17.53;;;8.40;91.60;;;;;;5071226;28;20681;-49
2020/12/06 05:26:28;;;;;;;20.80;18.63;;;8.30;91.60;;;;;;5072069;28;20631;-50
2020/12/06 05:28:56;;;;;;;22.83;18.77;;;8.40;91.60;;;;;;5070413;28;20717;-50
2020/12/06 05:31:22;;;;;;;23.13;18.60;;;8.40;91.50;;;;;;5071452;28;20664;-49
2020/12/06 05:33:49;;;;;;;24.37;20.30;;;8.40;91.60;;;;;;5070947;28;21261;-50
2020/12/06 05:36:16;;;;;;;23.67;20.53;;;8.30;91.60;;;;;;5070971;28;20690;-50
2020/12/06 05:38:43;;;;;;;24.00;18.77;;;8.40;91.60;;;;;;5070672;28;20698;-50
2020/12/06 05:41:10;;;;;;;22.13;19.47;;;8.40;91.60;;;;;;5070588;28;20680;-50
2020/12/06 05:43:37;;;;;;;21.30;18.63;;;8.40;91.60;;;;;;5070521;28;20632;-51
2020/12/06 05:46:05;;;;;;;25.27;20.27;;;8.40;91.50;;;;;;5070575;28;20632;-50
2020/12/06 05:48:32;;;;;;;22.90;19.63;;;8.40;91.60;;;;;;5070256;28;21235;-50
2020/12/06 05:50:59;;;;;;;23.43;20.10;;;8.40;91.60;;;;;;5069709;28;21339;-50
2020/12/06 05:53:27;;;;;;;26.87;20.50;;;8.40;91.60;;;;;;5068604;28;20624;-51
2020/12/06 05:55:56;;;;;;;21.40;18.77;;;8.40;91.60;;;;;;5070684;28;20687;-50
2020/12/06 05:58:24;;;;;;;24.20;20.20;;;8.40;91.60;;;;;;5070559;28;20788;-50
2020/12/06 06:00:51;;;;;;;25.23;20.50;;;8.40;91.60;;;;;;5070296;28;20688;-50
2020/12/06 06:03:24;;;;;;;21.50;19.20;;;8.40;91.50;;;;;;5070263;28;20655;-51
2020/12/06 06:05:50;;;;;;;20.83;18.60;;;8.40;91.50;;;;;;5070334;28;20641;-51
2020/12/06 06:08:17;;;;;;;25.60;20.77;;;8.40;91.50;;;;;;5069615;28;20676;-51
2020/12/06 06:10:47;;;;;;;25.57;19.17;;;8.40;91.60;;;;;;5070347;28;21027;-50
2020/12/06 06:13:14;;;;;;;24.27;19.80;;;8.30;91.70;;;;;;5070711;28;21029;-50
2020/12/06 06:15:40;;;;;;;26.50;21.37;;;8.40;91.80;;;;;;5069580;28;20691;-50
2020/12/06 06:18:07;;;;;;;23.47;19.43;;;8.40;91.80;;;;;;5069768;28;21053;-50
2020/12/06 06:20:35;;;;;;;22.77;19.10;;;8.40;91.50;;;;;;5070172;28;20635;-50
2020/12/06 06:23:01;;;;;;;25.90;20.30;;;8.40;91.50;;;;;;5069618;28;20631;-50
2020/12/06 06:25:28;;;;;;;27.43;20.13;;;8.40;91.60;;;;;;5069621;28;20655;-49
2020/12/06 06:27:55;;;;;;;25.13;20.00;;;8.40;91.70;;;;;;5069616;28;20951;-50
2020/12/06 06:30:22;;;;;;;21.60;18.57;;;8.40;91.80;;;;;;5069525;28;20668;-52
2020/12/06 06:32:49;;;;;;;28.20;20.17;;;8.40;91.80;;;;;;5069613;28;21172;-51
2020/12/06 06:35:15;;;;;;;22.17;19.03;;;8.40;91.80;;;;;;5068500;28;20685;-50
2020/12/06 06:37:45;;;;;;;23.37;18.60;;;8.40;91.70;;;;;;5069819;28;20686;-55
2020/12/06 06:40:11;;;;;;;27.50;18.43;;;8.50;91.80;;;;;;5070050;28;21033;-51
2020/12/06 06:42:38;;;;;;;20.77;18.27;;;8.50;91.80;;;;;;5069701;28;21174;-52
2020/12/06 06:45:06;;;;;;;23.40;18.97;;;8.50;92.10;;;;;;5069183;28;20663;-52
2020/12/06 06:47:35;;;;;;;26.00;20.43;;;8.50;91.80;;;;;;5051225;28;20935;-52
2020/12/06 06:50:02;;;;;;;24.17;19.80;;;8.50;91.70;;;;;;5069343;28;20766;-52
2020/12/06 06:52:30;;;;;;;21.63;19.30;;;8.50;91.60;;;;;;5069376;28;20700;-52
2020/12/06 06:54:58;;;;;;;24.00;19.10;;;8.50;91.60;;;;;;5069275;28;20678;-52
2020/12/06 06:57:26;;;;;;;22.77;20.20;;;8.50;91.60;;;;;;5069403;28;21185;-52
2020/12/06 06:59:53;;;;;;;21.53;18.17;;;8.50;91.70;;;;;;5069222;28;20629;-52
2020/12/06 07:02:30;;;;;;;23.07;18.90;;;8.50;91.70;;;;;;5069224;28;20660;-51
2020/12/06 07:04:57;;;;;;;22.07;19.37;;;8.50;91.70;;;;;;5073571;28;20631;-52
2020/12/06 07:07:37;;;;;;;25.20;18.60;;;8.50;91.70;;;;;;5069208;28;20624;-52
2020/12/06 07:10:05;;;;;;;26.13;20.27;;;8.50;91.70;;;;;;5069466;28;20660;-54
2020/12/06 07:12:40;;;;;;;22.33;19.37;;;8.50;91.80;;;;;;5069233;28;20636;-52
2020/12/06 07:15:10;;;;;;;22.77;18.40;;;8.50;91.90;;;;;;5069128;28;20686;-51
2020/12/06 07:17:37;;;;;;;26.37;21.37;;;8.50;92.00;;;;;;5068532;28;20705;-52
2020/12/06 07:20:04;;;;;;;25.50;20.90;;;8.50;92.00;;;;;;5069248;28;20674;-54
2020/12/06 07:22:31;;;;;;;24.37;19.90;;;8.50;91.90;;;;;;5069316;28;20987;-53
2020/12/06 07:24:58;;;;;;;23.63;17.83;;;8.50;92.00;;;;;;5068888;28;21000;-50
2020/12/06 07:27:26;;;;;;;24.13;20.23;;;8.50;92.00;;;;;;5068897;28;21167;-50
2020/12/06 07:29:52;;;;;;;23.50;18.90;;;8.40;92.00;;;;;;5069327;28;20668;-51
2020/12/06 07:32:19;;;;;;;26.33;20.67;;;8.50;92.10;;;;;;5069301;28;20623;-49
2020/12/06 07:34:46;;;;;;;29.30;22.43;;;8.50;92.10;;;;;;5068085;28;20648;-50
2020/12/06 07:37:14;;;;;;;29.70;22.87;;;8.50;92.20;;;;;;5068929;28;20689;-51
2020/12/06 07:39:42;;;;;;;26.33;20.97;;;8.40;92.20;;;;;;5069123;28;20779;-49
2020/12/06 07:42:09;;;;;;;27.67;20.33;;;8.40;92.30;;;;;;5068993;28;20681;-50
2020/12/06 07:44:45;;;;;;;26.77;20.77;;;8.40;92.20;;;;;;5069129;28;20629;-51
2020/12/06 07:47:12;;;;;;;25.20;21.67;;;8.40;92.30;;;;;;5069068;28;20628;-50
2020/12/06 07:49:46;;;;;;;26.97;22.13;;;8.40;92.30;;;;;;5068955;28;20716;-49
2020/12/06 07:52:14;;;;;;;25.80;20.77;;;8.40;92.40;;;;;;5068847;28;20681;-50
2020/12/06 07:54:41;;;;;;;26.30;22.00;;;8.50;92.30;;;;;;5068690;28;20936;-50
2020/12/06 07:57:08;;;;;;;24.30;20.70;;;8.40;92.30;;;;;;5068512;28;20625;-50
2020/12/06 07:59:34;;;;;;;26.73;19.77;;;8.40;92.40;;;;;;5069349;28;21041;-50
2020/12/06 08:02:04;;;;;;;26.80;20.73;;;8.40;92.50;;;;;;5068888;28;20655;-49
2020/12/06 08:04:33;;;;;;;24.87;22.00;;;8.50;92.60;;;;;;5071603;28;20644;-50
2020/12/06 08:07:01;;;;;;;21.03;18.40;;;8.50;92.60;;;;;;5072133;28;20693;-49
2020/12/06 08:09:28;;;;;;;28.27;23.40;;;8.50;92.70;;;;;;5072756;28;20720;-51
2020/12/06 08:11:55;;;;;;;26.40;21.63;;;8.50;92.60;;;;;;5072431;28;20669;-50
2020/12/06 08:14:22;;;;;;;28.90;21.00;;;8.50;92.60;;;;;;5072228;28;20684;-51
2020/12/06 08:16:55;;;;;;;26.57;20.63;;;8.50;92.60;;;;;;5072511;28;20656;-50
2020/12/06 08:19:24;;;;;;;26.67;22.50;;;8.50;92.60;;;;;;5072510;28;20660;-49
2020/12/06 08:21:51;;;;;;;30.73;23.80;;;8.50;92.60;;;;;;5071872;28;20629;-50
2020/12/06 08:24:19;;;;;;;32.37;22.00;;;8.50;92.60;;;;;;5072220;28;20984;-50
2020/12/06 08:26:46;;;;;;;33.57;21.73;;;8.50;92.60;;;;;;5072142;28;20636;-50
2020/12/06 08:29:14;;;;;;;24.70;20.13;;;8.50;92.50;;;;;;5054187;28;20800;-51
2020/12/06 08:31:40;;;;;;;28.87;23.30;;;8.60;92.40;;;;;;5072082;28;21316;-51
2020/12/06 08:34:09;;;;;;;34.00;23.80;;;8.60;92.40;;;;;;5071920;28;20702;-49
2020/12/06 08:36:36;;;;;;;34.27;24.23;;;8.60;92.40;;;;;;5071978;28;20625;-49
2020/12/06 08:39:14;;;;;;;29.33;21.10;;;8.60;92.40;;;;;;5071997;28;20747;-50
2020/12/06 08:41:40;;;;;;;33.40;23.83;;;8.60;92.40;;;;;;5072266;28;20690;-50
2020/12/06 08:44:07;;;;;;;28.37;21.37;;;8.60;92.40;;;;;;5066925;28;20683;-50
2020/12/06 08:46:34;;;;;;;34.30;24.93;;;8.70;92.40;;;;;;5057067;28;20674;-50
2020/12/06 08:49:01;;;;;;;32.37;23.73;;;8.60;92.30;;;;;;5071719;28;20691;-51
2020/12/06 08:51:32;;;;;;;30.63;22.03;;;8.60;92.40;;;;;;5072396;28;20669;-52
2020/12/06 08:54:00;;;;;;;33.70;22.67;;;8.60;92.40;;;;;;5059715;28;20626;-52
2020/12/06 08:56:31;;;;;;;34.67;24.20;;;8.70;92.40;;;;;;5051946;28;20633;-50
2020/12/06 08:59:01;;;;;;;32.40;24.93;;;8.70;92.30;;;;;;5051719;28;20660;-50
2020/12/06 09:01:28;;;;;;;32.13;24.90;;;8.70;92.60;;;;;;5051706;28;20618;-51
2020/12/06 09:03:55;;;;;;;35.47;24.30;;;8.70;92.20;;;;;;5061011;28;20661;-52
2020/12/06 09:06:22;;;;;;;29.23;20.30;;;8.70;92.10;;;;;;5071826;28;20701;-52
2020/12/06 09:08:49;;;;;;;32.40;22.33;;;8.70;92.00;;;;;;5071562;28;20720;-52
2020/12/06 09:11:17;;;;;;;24.53;20.63;;;8.70;92.00;;;;;;5071199;28;20688;-51
2020/12/06 09:13:44;;;;;;;30.93;24.20;;;8.70;91.90;;;;;;5071463;28;20620;-52
2020/12/06 09:16:11;;;;;;;33.07;22.27;;;8.70;92.10;;;;;;5070805;28;20684;-51
2020/12/06 09:18:38;;;;;;;29.47;22.23;;;8.70;92.10;;;;;;5071145;28;20648;-52
2020/12/06 09:21:05;;;;;;;27.40;21.50;;;8.80;92.10;;;;;;5071407;28;20625;-52
2020/12/06 09:23:32;;;;;;;33.00;23.37;;;8.70;92.00;;;;;;5058877;28;20758;-49
2020/12/06 09:26:00;;;;;;;29.83;23.63;;;8.70;92.10;;;;;;5071204;28;21155;-49
2020/12/06 09:28:27;;;;;;;33.70;23.87;;;8.70;92.20;;;;;;5070794;28;21000;-51
2020/12/06 09:30:54;;;;;;;30.00;23.27;;;8.70;92.30;;;;;;5071030;28;20713;-52
2020/12/06 09:33:21;;;;;;;31.13;24.43;;;8.70;92.70;;;;;;5070842;28;20673;-51
2020/12/06 09:35:48;;;;;;;36.60;26.00;;;8.70;92.40;;;;;;5071614;28;20702;-51
2020/12/06 09:38:15;;;;;;;30.73;23.20;;;8.70;92.40;;;;;;5070697;28;20737;-52
2020/12/06 09:40:42;;;;;;;31.47;24.67;;;8.70;92.50;;;;;;5071313;28;21192;-51
2020/12/06 09:43:09;;;;;;;32.10;24.87;;;8.70;92.40;;;;;;5071096;28;20685;-50
2020/12/06 09:45:36;;;;;;;36.00;22.60;;;8.70;92.40;;;;;;5070856;28;20715;-49
2020/12/06 09:48:03;;;;;;;29.80;23.80;;;8.70;92.60;;;;;;5064716;28;20641;-49
2020/12/06 09:50:30;;;;;;;28.90;20.93;;;8.60;92.40;;;;;;5071482;28;20766;-51
2020/12/06 09:52:57;;;;;;;31.00;22.13;;;8.60;92.40;;;;;;5070604;28;21196;-53
2020/12/06 09:55:24;;;;;;;30.87;23.63;;;8.50;92.40;;;;;;5070741;28;20628;-53
2020/12/06 09:57:51;;;;;;;29.30;22.93;;;8.50;92.50;;;;;;5070421;28;20744;-50
2020/12/06 10:00:17;;;;;;;29.20;20.77;;;8.50;92.60;;;;;;5069985;28;20644;-50
2020/12/06 10:02:45;;;;;;;33.30;23.10;;;8.50;92.70;;;;;;5070383;28;20688;-50
2020/12/06 10:05:12;;;;;;;30.30;23.60;;;8.40;92.80;;;;;;5070678;28;20628;-50
2020/12/06 10:07:39;;;;;;;32.40;22.67;;;8.40;92.90;;;;;;5068913;28;20640;-50
2020/12/06 10:10:06;;;;;;;28.83;22.00;;;8.40;93.00;;;;;;5057972;28;20653;-49
2020/12/06 10:12:32;;;;;;;33.10;22.40;;;8.50;93.00;;;;;;5060285;28;20679;-51
2020/12/06 10:14:59;;;;;;;30.97;21.30;;;8.50;93.00;;;;;;5057252;28;20746;-53
2020/12/06 10:17:26;;;;;;;31.63;23.97;;;8.50;93.00;;;;;;5047180;28;20613;-53
2020/12/06 10:19:54;;;;;;;31.37;23.17;;;8.50;93.00;;;;;;5058539;28;21166;-54
2020/12/06 10:22:20;;;;;;;35.30;23.60;;;8.50;93.00;;;;;;5050582;28;20624;-53
2020/12/06 10:24:47;;;;;;;29.60;19.67;;;8.60;93.00;;;;;;5068201;28;20633;-56
2020/12/06 10:27:14;;;;;;;31.40;23.73;;;8.60;93.00;;;;;;5069259;28;20698;-53
2020/12/06 10:29:41;;;;;;;31.73;21.00;;;8.60;93.10;;;;;;5069662;28;20652;-53
2020/12/06 10:32:08;;;;;;;31.13;23.53;;;8.50;93.10;;;;;;5069671;28;20663;-53
2020/12/06 10:34:34;;;;;;;31.20;21.93;;;8.50;93.10;;;;;;5066830;28;20629;-53
2020/12/06 10:37:02;;;;;;;37.30;23.83;;;8.50;93.20;;;;;;5061007;28;20638;-52
2020/12/06 10:39:29;;;;;;;31.37;21.80;;;8.40;93.40;;;;;;5050008;28;20664;-53
2020/12/06 10:41:56;;;;;;;32.37;24.87;;;8.40;93.60;;;;;;5064351;28;20669;-54
2020/12/06 10:44:24;;;;;;;36.23;24.63;;;8.30;93.70;;;;;;5069833;28;20624;-54
2020/12/06 10:46:50;;;;;;;32.30;24.10;;;8.30;93.80;;;;;;5068978;28;20650;-53
2020/12/06 10:49:17;;;;;;;35.60;24.47;;;8.30;93.80;;;;;;5050745;28;20653;-53
2020/12/06 10:51:44;;;;;;;34.90;25.53;;;8.20;93.90;;;;;;5055348;28;21230;-53
2020/12/06 10:54:12;;;;;;;32.93;25.20;;;8.20;94.00;;;;;;5069868;28;20698;-53
2020/12/06 10:56:39;;;;;;;37.03;24.50;;;8.20;94.20;;;;;;5069857;28;21025;-53
2020/12/06 10:59:06;;;;;;;37.33;24.93;;;8.30;94.20;;;;;;5069890;28;21050;-52
2020/12/06 11:01:33;;;;;;;37.47;23.77;;;8.40;94.30;;;;;;5069782;28;20620;-53
2020/12/06 11:04:00;;;;;;;28.20;20.10;;;8.40;94.00;;;;;;5064591;28;20633;-52
2020/12/06 11:06:27;;;;;;;32.07;24.67;;;8.40;94.10;;;;;;5083333;28;22035;-53
2020/12/06 11:08:55;;;;;;;34.60;25.93;;;8.20;94.20;;;;;;5051979;28;20664;-53
2020/12/06 11:11:23;;;;;;;39.97;27.20;;;8.20;94.50;;;;;;5070005;28;20663;-54
2020/12/06 11:13:52;;;;;;;35.33;24.27;;;8.20;94.60;;;;;;5071070;28;20647;-53
2020/12/06 11:16:19;;;;;;;32.50;22.17;;;8.20;94.70;;;;;;5069778;28;20616;-50
2020/12/06 11:18:46;;;;;;;38.47;24.47;;;8.00;94.50;;;;;;5069640;28;21029;-50
2020/12/06 11:21:14;;;;;;;33.63;26.63;;;8.00;94.80;;;;;;5069289;28;20685;-54
2020/12/06 11:23:41;;;;;;;39.90;28.80;;;7.90;95.00;;;;;;5069369;28;21132;-53
2020/12/06 11:26:08;;;;;;;40.33;24.80;;;7.90;95.20;;;;;;5069304;28;20636;-53
2020/12/06 11:28:36;;;;;;;31.90;22.77;;;7.90;95.30;;;;;;5069300;28;20656;-51
2020/12/06 11:31:03;;;;;;;28.63;21.87;;;8.00;95.30;;;;;;5072853;28;22881;-51
2020/12/06 11:33:30;;;;;;;32.17;22.20;;;8.00;95.30;;;;;;5069106;28;20725;-50
2020/12/06 11:35:56;;;;;;;28.47;22.00;;;7.90;95.40;;;;;;5069325;28;20631;-51
2020/12/06 11:38:23;;;;;;;33.23;22.83;;;7.80;95.40;;;;;;5071739;28;20660;-51
2020/12/06 11:40:50;;;;;;;35.53;25.50;;;7.90;95.60;;;;;;5058132;28;20633;-52
2020/12/06 11:43:17;;;;;;;37.20;23.17;;;7.90;95.60;;;;;;5076042;28;20987;-52
2020/12/06 11:45:45;;;;;;;32.70;23.60;;;7.90;95.70;;;;;;5076384;28;20682;-52
2020/12/06 11:48:12;;;;;;;35.63;22.97;;;7.90;95.40;;;;;;5075947;28;20758;-52
2020/12/06 11:50:39;;;;;;;29.27;20.93;;;8.00;95.50;;;;;;5057566;28;20636;-51
2020/12/06 11:53:05;;;;;;;25.20;20.03;;;8.00;95.40;;;;;;5075796;28;21197;-51
2020/12/06 11:55:32;;;;;;;32.80;24.37;;;8.00;95.30;;;;;;5076081;28;21254;-52
2020/12/06 11:57:59;;;;;;;28.30;21.00;;;8.10;95.30;;;;;;5057450;28;20729;-52
2020/12/06 12:00:26;;;;;;;29.83;23.27;;;8.20;95.30;;;;;;5072350;28;20625;-54
2020/12/06 12:02:54;;;;;;;31.10;23.30;;;8.20;95.10;;;;;;5056207;28;20728;-53
2020/12/06 12:05:21;;;;;;;31.47;19.87;;;8.30;95.00;;;;;;5067662;28;20743;-53
2020/12/06 12:07:48;;;;;;;25.17;21.70;;;8.30;95.00;;;;;;5074682;28;21149;-54
2020/12/06 12:10:16;;;;;;;32.13;22.60;;;8.30;94.90;;;;;;5075435;28;20635;-52
2020/12/06 12:12:43;;;;;;;36.30;24.40;;;8.30;94.90;;;;;;5076699;28;20648;-51
2020/12/06 12:15:10;;;;;;;34.30;23.80;;;8.40;94.80;;;;;;5058660;28;21256;-54
2020/12/06 12:17:37;;;;;;;29.97;20.80;;;8.40;94.80;;;;;;5057651;28;20631;-52
2020/12/06 12:20:05;;;;;;;31.30;19.67;;;8.40;94.60;;;;;;5057568;28;20632;-54
2020/12/06 12:22:32;;;;;;;29.57;21.93;;;8.50;94.50;;;;;;5075749;28;21241;-54
2020/12/06 12:24:59;;;;;;;24.90;19.83;;;8.40;94.50;;;;;;5075591;28;20628;-54
2020/12/06 12:27:25;;;;;;;30.10;19.57;;;8.40;94.50;;;;;;5075483;28;21257;-53
2020/12/06 12:29:52;;;;;;;20.60;16.10;;;8.50;94.60;;;;;;5075761;28;20686;-54
2020/12/06 12:32:19;;;;;;;27.30;19.50;;;8.40;94.30;;;;;;5075715;28;20672;-52
2020/12/06 12:34:46;;;;;;;29.00;21.50;;;8.50;94.30;;;;;;5075982;28;21190;-53
2020/12/06 12:37:15;;;;;;;26.40;18.33;;;8.50;94.40;;;;;;5075324;28;21198;-54